Time;durP1;ratioP1;P1;durP2;ratioP2;P2;SDS_P1;SDS_P2;PMS_P1;PMS_P2;Temp;Humidity;BMP_temperature;BMP_pressure;BME280_temperature;BME280_humidity;BME280_pressure;Samples;Min_cycle;Max_cycle;Signal;HPM_P1;HPM_P2
2022/05/03 00:00:12;;;;;;;;;47.50;36.50;;;;;12.05;55.21;100889.59;4975401;28;45346;-63
2022/05/03 00:02:47;;;;;;;;;44.50;36.75;;;;;12.02;55.39;100886.22;4975010;28;46263;-62
2022/05/03 00:05:29;;;;;;;;;47.25;37.25;;;;;11.98;55.72;100888.94;4975168;28;45174;-61
2022/05/03 00:08:12;;;;;;;;;43.00;37.00;;;;;11.93;55.56;100885.66;4975538;28;45243;-63
2022/05/03 00:11:10;;;;;;;;;42.75;36.75;;;;;11.91;55.50;100884.00;4979076;28;45363;-62
2022/05/03 00:14:02;;;;;;;;;37.25;32.50;;;;;11.88;55.70;100889.41;4978426;28;46176;-62
2022/05/03 00:16:29;;;;;;;;;46.50;37.50;;;;;11.84;55.66;100872.84;4978680;28;45400;-63
2022/05/03 00:18:55;;;;;;;;;45.75;36.50;;;;;11.75;56.19;100862.69;4978814;28;45423;-63
2022/05/03 00:21:21;;;;;;;;;35.75;32.75;;;;;11.74;55.64;100871.50;4961144;28;45309;-61
2022/05/03 00:23:47;;;;;;;;;44.75;36.75;;;;;11.72;56.39;100868.94;4978205;28;45295;-62
2022/05/03 00:26:14;;;;;;;;;45.75;36.50;;;;;11.72;55.77;100874.22;4978273;28;45423;-62
2022/05/03 00:28:40;;;;;;;;;40.25;31.25;;;;;11.69;55.79;100869.06;4978441;28;45373;-65
2022/05/03 00:31:07;;;;;;;;;40.25;34.75;;;;;11.66;56.33;100877.06;4978537;28;45397;-61
2022/05/03 00:33:33;;;;;;;;;50.25;38.00;;;;;11.64;55.97;100876.28;4960488;28;47549;-62
2022/05/03 00:35:59;;;;;;;;;47.00;38.25;;;;;11.57;56.22;100867.78;4978132;28;45315;-63
2022/05/03 00:38:24;;;;;;;;;47.75;39.25;;;;;11.54;56.46;100866.09;4978771;28;45478;-64
2022/05/03 00:40:56;;;;;;;;;47.00;37.75;;;;;11.53;56.37;100864.41;4978219;28;45612;-65
2022/05/03 00:43:50;;;;;;;;;52.25;40.75;;;;;11.50;57.40;100863.66;4978152;28;45722;-61
2022/05/03 00:46:27;;;;;;;;;43.00;36.50;;;;;11.48;56.68;100865.50;4978048;28;45427;-64
2022/05/03 00:49:05;;;;;;;;;43.25;37.50;;;;;11.45;56.53;100865.63;4978913;28;45376;-62
2022/05/03 00:51:52;;;;;;;;;45.50;34.25;;;;;11.44;56.93;100867.41;4976863;28;45418;-62
2022/05/03 00:54:36;;;;;;;;;43.50;37.50;;;;;11.42;56.50;100866.59;4977134;28;46284;-62
2022/05/03 00:57:32;;;;;;;;;47.00;37.50;;;;;11.40;56.93;100864.03;4977678;28;45365;-63
2022/05/03 01:00:07;;;;;;;;;47.00;35.50;;;;;11.24;57.12;100829.53;4977320;28;45373;-60
2022/05/03 01:02:59;;;;;;;;;47.50;39.75;;;;;11.34;56.89;100861.66;4977667;28;45436;-63
2022/05/03 01:05:56;;;;;;;;;51.00;39.50;;;;;11.23;57.27;100846.25;4969692;28;46389;-61
2022/05/03 01:09:03;;;;;;;;;45.50;37.75;;;;;11.31;57.15;100860.88;4952630;28;45406;-62
2022/05/03 01:11:59;;;;;;;;;47.00;37.75;;;;;11.30;56.95;100865.31;4975758;28;45441;-62
2022/05/03 01:14:52;;;;;;;;;48.25;35.50;;;;;11.26;57.54;100861.09;4978404;28;45389;-60
2022/05/03 01:17:29;;;;;;;;;35.75;31.50;;;;;11.22;57.53;100857.69;4977670;28;45423;-64
2022/05/03 01:20:01;;;;;;;;;47.50;40.75;;;;;11.21;57.45;100853.34;4977303;28;45496;-66
2022/05/03 01:22:54;;;;;;;;;38.00;33.75;;;;;11.21;56.95;100852.50;4977229;28;45207;-64
2022/05/03 01:28:52;;;;;;;;;42.75;36.50;;;;;11.24;57.50;100852.38;5417128;23;46624;-62
2022/05/03 01:31:18;;;;;;;;;40.75;33.75;;;;;11.17;57.20;100841.22;4957736;28;45399;-61
2022/05/03 01:33:45;;;;;;;;;43.50;36.25;;;;;11.25;57.59;100856.75;4957810;28;45413;-59
2022/05/03 01:36:15;;;;;;;;;44.50;36.75;;;;;11.23;57.63;100851.50;4958363;28;45330;-60
2022/05/03 01:39:12;;;;;;;;;47.25;40.00;;;;;11.22;57.56;100848.97;4957476;28;45428;-60
2022/05/03 01:41:54;;;;;;;;;45.00;34.50;;;;;11.04;57.15;100819.75;4939151;28;45390;-60
2022/05/03 01:44:39;;;;;;;;;48.75;40.00;;;;;11.18;57.31;100844.72;4958269;28;45341;-60
2022/05/03 01:47:23;;;;;;;;;43.25;35.75;;;;;11.15;57.63;100836.94;4957700;28;45381;-64
2022/05/03 01:50:20;;;;;;;;;46.50;36.50;;;;;11.10;58.50;100837.94;4957367;28;45386;-59
2022/05/03 01:53:05;;;;;;;;;42.25;36.50;;;;;11.07;57.70;100838.06;4957218;28;45483;-59
2022/05/03 01:55:30;;;;;;;;;49.50;38.00;;;;;11.07;57.98;100839.84;4959522;28;45467;-60
2022/05/03 01:58:10;;;;;;;;;46.50;37.75;;;;;11.04;58.19;100839.97;4959682;28;45256;-64
2022/05/03 02:00:36;;;;;;;;;35.50;33.50;;;;;10.99;57.87;100836.66;4957370;28;46195;-60
2022/05/03 02:03:22;;;;;;;;;45.75;38.50;;;;;10.97;58.15;100831.44;4957157;28;45326;-61
2022/05/03 02:06:04;;;;;;;;;49.75;39.25;;;;;10.91;58.03;100829.03;4957822;28;45467;-63
2022/05/03 02:08:56;;;;;;;;;43.25;36.75;;;;;10.88;58.33;100830.03;4958523;28;45181;-59
2022/05/03 02:11:38;;;;;;;;;39.75;35.00;;;;;10.84;58.41;100828.44;4957391;28;47239;-58
2022/05/03 02:17:04;;;;;;;;;42.75;36.75;;;;;10.77;58.63;100832.22;4957245;28;45286;-59
2022/05/03 02:19:58;;;;;;;;;42.50;34.25;;;;;10.73;58.35;100830.59;4957703;28;45342;-60
2022/05/03 02:22:35;;;;;;;;;45.75;36.00;;;;;10.69;58.42;100839.53;4939509;28;45526;-59
2022/05/03 02:25:00;;;;;;;;;36.75;31.75;;;;;10.63;58.94;100845.84;4940038;28;45257;-63
2022/05/03 02:27:29;;;;;;;;;44.50;37.25;;;;;10.60;59.01;100843.34;4957711;28;45231;-61
2022/05/03 02:29:57;;;;;;;;;43.25;36.25;;;;;10.56;59.19;100841.72;4957610;28;45615;-60
2022/05/03 02:32:35;;;;;;;;;41.25;36.75;;;;;10.52;59.63;100848.84;4939162;28;47657;-61
2022/05/03 02:35:04;;;;;;;;;45.25;37.25;;;;;10.51;59.43;100839.25;4957310;28;45279;-62
2022/05/03 02:37:42;;;;;;;;;45.75;39.25;;;;;10.49;58.91;100846.34;4957637;28;45387;-62
2022/05/03 02:40:14;;;;;;;;;48.75;39.75;;;;;10.30;59.30;100814.56;4940209;28;45570;-61
2022/05/03 02:42:40;;;;;;;;;45.25;36.75;;;;;10.30;59.32;100809.31;4958279;28;45439;-65
2022/05/03 02:45:07;;;;;;;;;49.00;36.25;;;;;10.49;59.28;100841.06;4957110;28;45451;-62
2022/05/03 02:48:06;;;;;;;;;38.00;34.00;;;;;10.53;59.32;100855.84;4957107;28;45296;-61
2022/05/03 02:50:50;;;;;;;;;42.00;33.50;;;;;10.51;59.20;100839.25;4940882;28;45433;-64
2022/05/03 02:53:36;;;;;;;;;44.00;33.25;;;;;10.54;59.26;100857.53;4940836;28;47441;-64
2022/05/03 02:56:24;;;;;;;;;46.00;38.00;;;;;10.54;59.12;100856.72;4957792;28;45291;-63
2022/05/03 02:58:58;;;;;;;;;46.00;38.00;;;;;10.55;59.34;100851.38;4957574;28;45419;-62
2022/05/03 03:01:48;;;;;;;;;51.00;38.25;;;;;10.58;59.09;100853.06;4958534;28;45428;-64
2022/05/03 03:04:38;;;;;;;;;47.25;37.00;;;;;10.60;59.37;100853.84;4958033;28;46621;-64
2022/05/03 03:07:05;;;;;;;;;47.00;36.00;;;;;10.61;59.36;100853.81;4957453;28;45400;-67
2022/05/03 03:09:56;;;;;;;;;43.50;35.25;;;;;10.62;58.76;100850.28;4957822;28;45528;-64
2022/05/03 03:12:44;;;;;;;;;48.75;37.75;;;;;10.61;59.55;100843.28;4957781;28;45405;-60
2022/05/03 03:15:15;;;;;;;;;39.50;36.25;;;;;10.61;58.76;100839.78;4958329;28;45428;-64
2022/05/03 03:17:42;;;;;;;;;40.00;33.25;;;;;10.57;59.24;100833.75;4941309;28;46141;-64
2022/05/03 03:20:09;;;;;;;;;49.25;37.25;;;;;10.62;58.95;100845.00;4957979;28;45311;-60
2022/05/03 03:22:43;;;;;;;;;35.50;31.00;;;;;10.62;58.83;100850.28;4957311;28;45511;-59
2022/05/03 03:25:13;;;;;;;;;42.75;36.50;;;;;10.64;59.19;100847.56;4957013;28;46066;-61
2022/05/03 03:27:39;;;;;;;;;47.50;37.75;;;;;10.64;58.56;100850.19;4956359;28;45663;-60
2022/05/03 03:30:10;;;;;;;;;44.25;38.50;;;;;10.65;59.10;100851.91;4956266;28;45355;-59
2022/05/03 03:32:46;;;;;;;;;37.75;32.75;;;;;10.66;58.92;100843.09;4956393;28;45816;-60
2022/05/03 03:35:14;;;;;;;;;45.50;38.00;;;;;10.60;58.95;100831.06;4956402;28;45454;-60
2022/05/03 03:37:42;;;;;;;;;48.75;38.75;;;;;10.63;59.04;100838.84;4958312;28;45345;-62
2022/05/03 03:40:08;;;;;;;;;43.50;35.50;;;;;10.62;58.75;100842.38;4957428;28;45409;-64
2022/05/03 03:42:33;;;;;;;;;40.25;35.50;;;;;10.62;58.97;100836.25;4939994;28;45575;-66
2022/05/03 03:45:01;;;;;;;;;48.50;40.00;;;;;10.59;59.00;100833.72;4955046;28;45440;-65
2022/05/03 03:47:28;;;;;;;;;51.75;40.50;;;;;10.55;59.16;100834.75;4955699;28;45377;-59
2022/05/03 03:49:56;;;;;;;;;45.75;35.25;;;;;10.51;59.31;100831.34;4955755;28;45394;-60
2022/05/03 03:52:23;;;;;;;;;50.50;38.00;;;;;10.47;58.97;100837.63;4938364;28;45338;-60
2022/05/03 03:54:49;;;;;;;;;46.50;39.50;;;;;10.42;59.01;100829.06;4955324;28;46070;-59
2022/05/03 03:57:15;;;;;;;;;47.50;40.00;;;;;10.43;59.14;100836.03;4955484;28;45412;-61
2022/05/03 03:59:41;;;;;;;;;47.50;38.50;;;;;10.40;59.32;100833.50;4955681;28;45348;-59
2022/05/03 04:02:06;;;;;;;;;50.75;39.25;;;;;10.36;59.32;100841.47;4956083;28;45379;-62
2022/05/03 04:04:36;;;;;;;;;51.00;37.50;;;;;10.26;59.49;100837.47;4955988;28;46355;-62
2022/05/03 04:07:02;;;;;;;;;45.25;36.50;;;;;10.26;59.79;100842.72;4955515;28;45262;-59
2022/05/03 04:09:28;;;;;;;;;46.75;38.25;;;;;10.27;59.80;100843.59;4955673;28;45370;-61
2022/05/03 04:11:54;;;;;;;;;45.75;37.25;;;;;10.25;59.54;100834.91;4957102;28;45363;-63
2022/05/03 04:14:20;;;;;;;;;43.50;36.75;;;;;10.26;60.00;100845.34;4956253;28;45337;-63
2022/05/03 04:16:46;;;;;;;;;50.75;39.50;;;;;10.19;59.85;100836.81;4938117;28;45832;-63
2022/05/03 04:19:12;;;;;;;;;48.25;38.50;;;;;10.16;60.01;100834.31;4959044;28;45385;-63
2022/05/03 04:21:39;;;;;;;;;53.50;41.75;;;;;10.18;59.80;100845.63;4959177;28;45483;-59
2022/05/03 04:24:05;;;;;;;;;47.25;37.75;;;;;10.16;60.10;100844.81;4956664;28;46618;-64
2022/05/03 04:26:30;;;;;;;;;51.25;41.50;;;;;10.17;60.17;100840.41;4955862;28;45341;-60
2022/05/03 04:29:01;;;;;;;;;45.00;37.25;;;;;10.20;59.97;100849.06;4954959;28;45184;-59
2022/05/03 04:31:27;;;;;;;;;47.25;36.25;;;;;10.28;59.76;100853.19;4956456;28;45621;-61
2022/05/03 04:33:54;;;;;;;;;46.00;38.50;;;;;10.26;60.10;100850.59;4955353;28;46283;-60
2022/05/03 04:36:19;;;;;;;;;38.00;34.75;;;;;10.24;60.34;100844.53;4955161;28;45304;-64
2022/05/03 04:38:44;;;;;;;;;50.75;40.25;;;;;10.19;60.58;100847.34;4939968;28;45280;-60
2022/05/03 04:41:10;;;;;;;;;49.00;40.50;;;;;10.19;60.02;100838.59;4957382;28;45624;-61
2022/05/03 04:43:35;;;;;;;;;47.00;38.00;;;;;10.24;60.43;100855.06;4955530;28;45268;-61
2022/05/03 04:46:01;;;;;;;;;53.50;40.75;;;;;10.26;60.36;100837.47;4955192;28;45263;-61
2022/05/03 04:48:26;;;;;;;;;43.75;36.75;;;;;10.30;60.90;100841.69;4937902;28;45307;-61
2022/05/03 04:50:51;;;;;;;;;48.00;38.00;;;;;10.32;60.63;100850.38;4955495;28;45220;-61
2022/05/03 04:53:17;;;;;;;;;50.25;40.75;;;;;10.34;60.55;100845.94;4937750;28;45383;-59
2022/05/03 04:55:43;;;;;;;;;44.50;38.25;;;;;10.37;59.89;100842.34;4955415;28;45452;-59
2022/05/03 04:58:09;;;;;;;;;47.25;36.50;;;;;10.33;60.26;100832.84;4958435;28;45275;-59
2022/05/03 05:00:35;;;;;;;;;54.00;42.00;;;;;10.40;60.04;100846.66;4958280;28;45320;-62
2022/05/03 05:03:01;;;;;;;;;48.00;39.50;;;;;10.38;60.17;100844.91;4958086;28;45317;-66
2022/05/03 05:05:26;;;;;;;;;53.25;37.50;;;;;10.42;59.98;100850.09;4958178;28;45357;-64
2022/05/03 05:07:52;;;;;;;;;48.00;40.50;;;;;10.46;59.56;100844.69;4959944;28;45322;-64
2022/05/03 05:10:23;;;;;;;;;47.00;37.50;;;;;10.49;59.65;100841.94;4958238;28;45246;-63
2022/05/03 05:12:49;;;;;;;;;49.75;40.00;;;;;10.54;59.97;100849.66;4958246;28;46013;-64
2022/05/03 05:15:15;;;;;;;;;52.25;42.75;;;;;10.57;59.55;100852.19;4957969;28;45396;-65
2022/05/03 05:17:40;;;;;;;;;49.25;40.50;;;;;10.65;59.31;100857.19;4958379;28;45510;-63
2022/05/03 05:20:06;;;;;;;;;47.50;38.75;;;;;10.61;59.62;100845.06;4959194;28;45532;-63
2022/05/03 05:22:32;;;;;;;;;49.00;40.50;;;;;10.70;59.16;100863.13;4957870;28;46386;-64
2022/05/03 05:24:57;;;;;;;;;46.50;37.75;;;;;10.64;59.56;100848.44;4940849;28;45405;-66
2022/05/03 05:27:23;;;;;;;;;52.00;40.75;;;;;10.70;59.65;100867.56;4958017;28;45238;-63
2022/05/03 05:29:48;;;;;;;;;48.00;40.50;;;;;10.71;59.38;100866.63;4958012;28;45756;-60
2022/05/03 05:32:13;;;;;;;;;38.50;34.00;;;;;10.71;59.35;100867.47;4957779;28;46066;-60
2022/05/03 05:34:39;;;;;;;;;49.00;40.50;;;;;10.73;59.33;100867.44;4958055;28;45253;-60
2022/05/03 05:37:04;;;;;;;;;52.50;40.75;;;;;10.79;59.17;100873.31;4958085;28;45344;-59
2022/05/03 05:39:30;;;;;;;;;51.50;39.50;;;;;10.81;59.08;100874.13;4958095;28;45325;-63
2022/05/03 05:41:56;;;;;;;;;39.25;33.00;;;;;10.82;58.75;100873.22;4957461;28;45387;-60
2022/05/03 05:44:22;;;;;;;;;52.75;42.00;;;;;10.83;58.97;100881.97;4958041;28;45923;-60
2022/05/03 05:46:49;;;;;;;;;44.50;37.50;;;;;10.83;59.71;100868.81;4957943;28;45434;-60
2022/05/03 05:49:14;;;;;;;;;52.25;40.25;;;;;10.87;59.38;100873.06;4958710;28;45531;-61
2022/05/03 05:51:39;;;;;;;;;52.25;41.25;;;;;10.91;59.70;100879.03;4958480;28;45386;-61
2022/05/03 05:54:05;;;;;;;;;51.00;40.75;;;;;10.98;59.22;100884.94;4959363;28;45427;-61
2022/05/03 05:56:30;;;;;;;;;51.75;42.50;;;;;11.07;58.92;100876.72;4960505;28;45393;-62
2022/05/03 05:58:56;;;;;;;;;51.00;39.25;;;;;11.24;58.74;100873.44;4960823;28;45618;-64
2022/05/03 06:01:26;;;;;;;;;46.25;39.50;;;;;11.42;58.88;100882.41;4940342;28;46264;-64
2022/05/03 06:03:52;;;;;;;;;46.25;39.50;;;;;11.54;57.94;100878.44;4957601;28;45302;-62
2022/05/03 06:06:17;;;;;;;;;48.50;40.50;;;;;11.70;57.94;100881.34;4957686;28;45498;-62
2022/05/03 06:08:43;;;;;;;;;53.25;41.75;;;;;11.78;57.92;100884.50;4957845;28;45519;-66
2022/05/03 06:11:09;;;;;;;;;45.00;39.50;;;;;11.86;57.28;100892.09;4960672;28;46112;-67
2022/05/03 06:13:35;;;;;;;;;49.50;40.75;;;;;11.90;57.47;100898.13;4961886;28;45516;-67
2022/05/03 06:16:10;;;;;;;;;48.25;38.50;;;;;11.94;56.96;100895.28;4956898;28;45524;-67
2022/05/03 06:18:39;;;;;;;;;49.75;41.25;;;;;11.94;56.79;100899.72;4957717;28;45506;-65
2022/05/03 06:21:07;;;;;;;;;45.00;37.50;;;;;11.90;57.16;100896.31;4955800;28;47175;-68
2022/05/03 06:23:33;;;;;;;;;47.00;40.50;;;;;11.98;56.96;100896.03;4956237;28;45875;-65
2022/05/03 06:25:58;;;;;;;;;47.00;39.00;;;;;12.01;56.94;100905.59;4958691;28;45349;-63
2022/05/03 06:28:24;;;;;;;;;51.00;40.00;;;;;11.93;57.02;100888.28;4958539;28;45323;-68
2022/05/03 06:30:50;;;;;;;;;46.75;40.25;;;;;11.95;57.01;100904.91;4959119;28;47682;-69
2022/05/03 06:33:15;;;;;;;;;43.25;37.25;;;;;11.95;56.78;100901.41;4956971;28;45429;-66
2022/05/03 06:35:41;;;;;;;;;51.00;40.00;;;;;11.98;56.96;100906.56;4972756;28;45340;-65
2022/05/03 06:38:07;;;;;;;;;45.00;39.00;;;;;11.99;56.64;100908.28;4973787;28;45460;-65
2022/05/03 06:40:32;;;;;;;;;45.75;38.00;;;;;11.96;56.90;100916.31;4956833;28;45449;-67
2022/05/03 06:42:57;;;;;;;;;44.00;36.75;;;;;11.97;56.74;100918.88;4954372;28;45460;-65
2022/05/03 06:45:23;;;;;;;;;47.25;39.25;;;;;12.00;56.51;100923.22;4956190;28;45314;-63
2022/05/03 06:47:49;;;;;;;;;50.00;41.50;;;;;12.02;56.31;100924.00;4956630;28;45600;-65
2022/05/03 06:50:14;;;;;;;;;52.25;41.50;;;;;12.01;56.51;100911.75;4957776;28;45364;-63
2022/05/03 06:52:42;;;;;;;;;53.50;43.00;;;;;12.08;56.32;100907.94;4957642;28;45206;-62
2022/05/03 06:55:24;;;;;;;;;50.00;40.75;;;;;12.14;56.41;100914.72;4956469;28;45519;-65
2022/05/03 06:57:50;;;;;;;;;48.00;39.25;;;;;12.18;55.91;100912.81;4957309;28;45508;-67
2022/05/03 07:00:15;;;;;;;;;51.50;41.25;;;;;12.16;56.02;100898.84;4957868;28;46051;-69
2022/05/03 07:02:44;;;;;;;;;46.50;39.25;;;;;12.12;56.08;100903.38;4944522;28;45300;-64
2022/05/03 07:05:09;;;;;;;;;52.25;40.75;;;;;12.19;56.05;100910.09;4957096;28;45211;-65
2022/05/03 07:07:35;;;;;;;;;48.25;38.75;;;;;12.18;55.89;100907.56;4956721;28;45485;-65
2022/05/03 07:10:01;;;;;;;;;50.25;41.00;;;;;12.22;56.05;100914.41;4941135;28;45538;-70
2022/05/03 07:12:27;;;;;;;;;48.75;38.75;;;;;12.18;55.64;100926.00;4957225;28;45997;-66
2022/05/03 07:15:00;;;;;;;;;52.00;42.00;;;;;12.15;55.69;100923.50;4956405;28;45404;-65
2022/05/03 07:22:54;;;;;;;;;47.00;39.25;;;;;12.25;55.60;100920.44;4955485;28;45941;-66
2022/05/03 07:25:19;;;;;;;;;46.25;40.25;;;;;12.30;55.56;100922.84;4955516;28;45413;-65
2022/05/03 07:27:46;;;;;;;;;54.75;41.50;;;;;12.31;55.51;100923.72;4956069;28;45428;-67
2022/05/03 07:30:13;;;;;;;;;51.75;41.50;;;;;12.28;55.64;100922.06;4957709;28;46212;-65
2022/05/03 07:32:39;;;;;;;;;50.25;40.25;;;;;12.35;55.68;100920.03;4957925;28;45353;-65
2022/05/03 07:35:04;;;;;;;;;53.50;42.00;;;;;12.38;55.83;100914.63;4956861;28;45929;-64
2022/05/03 07:37:30;;;;;;;;;47.25;39.00;;;;;12.50;55.56;100921.16;4956485;28;45322;-63
2022/05/03 07:39:55;;;;;;;;;54.25;42.50;;;;;12.64;55.30;100926.69;4956130;28;46075;-68
2022/05/03 07:42:20;;;;;;;;;46.50;37.25;;;;;12.85;55.19;100930.19;4956380;28;45290;-66
2022/05/03 07:44:46;;;;;;;;;43.25;37.75;;;;;13.18;54.51;100925.22;4956053;28;45380;-66
2022/05/03 07:47:11;;;;;;;;;46.50;39.25;;;;;13.54;54.04;100927.16;4938299;28;45244;-62
2022/05/03 07:49:36;;;;;;;;;47.00;38.25;;;;;13.87;53.07;100927.31;4955250;28;45190;-63
2022/05/03 07:52:02;;;;;;;;;43.50;36.75;;;;;14.08;52.78;100929.84;4955972;28;45227;-66
2022/05/03 07:54:27;;;;;;;;;50.25;40.75;;;;;14.27;52.38;100926.28;4956353;28;45301;-61
2022/05/03 07:56:53;;;;;;;;;46.50;36.25;;;;;14.28;51.59;100930.66;4954424;28;45520;-63
2022/05/03 07:59:21;;;;;;;;;44.25;38.00;;;;;14.17;51.28;100921.47;4955721;28;45483;-63
2022/05/03 08:01:46;;;;;;;;;43.50;35.00;;;;;14.19;51.38;100933.75;4955674;28;45405;-66
2022/05/03 08:04:12;;;;;;;;;44.00;36.00;;;;;14.21;51.65;100939.81;4955915;28;45437;-67
2022/05/03 08:06:37;;;;;;;;;51.50;40.75;;;;;14.33;51.72;100944.50;4956181;28;45507;-66
2022/05/03 08:09:03;;;;;;;;;47.75;37.00;;;;;14.45;51.30;100940.38;4955971;28;45732;-66
2022/05/03 08:11:29;;;;;;;;;49.75;40.75;;;;;14.56;51.34;100942.47;4955732;28;45363;-66
2022/05/03 08:13:54;;;;;;;;;42.00;36.00;;;;;14.61;50.93;100936.03;4955404;28;45209;-65
2022/05/03 08:16:20;;;;;;;;;39.50;33.25;;;;;14.74;50.68;100935.41;4955510;28;45229;-65
2022/05/03 08:18:47;;;;;;;;;43.25;35.00;;;;;14.79;50.66;100920.13;4955189;28;46206;-65
2022/05/03 08:21:13;;;;;;;;;47.75;38.50;;;;;15.12;50.17;100932.53;4954979;28;45457;-66
2022/05/03 08:23:39;;;;;;;;;46.00;36.50;;;;;15.33;49.20;100941.09;4955560;28;45289;-63
2022/05/03 08:26:05;;;;;;;;;47.00;38.25;;;;;15.46;49.00;100937.78;4956125;28;45410;-64
2022/05/03 08:28:30;;;;;;;;;37.75;33.75;;;;;15.60;49.03;100927.25;4955316;28;45576;-64
2022/05/03 08:30:57;;;;;;;;;40.50;34.25;;;;;15.78;48.74;100938.66;4958076;28;45320;-65
2022/05/03 08:33:22;;;;;;;;;41.00;35.00;;;;;15.88;47.97;100932.84;4959536;28;45307;-65
2022/05/03 08:35:47;;;;;;;;;39.50;31.25;;;;;15.94;48.53;100929.00;4958158;28;45590;-65
2022/05/03 08:43:40;;;;;;;;;38.25;34.25;;;;;15.98;47.78;100923.41;4959421;28;45402;-64
2022/05/03 08:46:06;;;;;;;;;35.00;32.25;;;;;16.01;47.56;100920.59;4959088;28;45476;-64
2022/05/03 08:48:35;;;;;;;;;40.75;35.50;;;;;16.12;47.19;100930.59;4958728;28;46690;-64
2022/05/03 08:51:01;;;;;;;;;42.25;35.00;;;;;16.15;46.98;100942.81;4959374;28;45267;-68
2022/05/03 08:53:27;;;;;;;;;45.25;37.25;;;;;16.15;46.63;100934.84;4960639;28;45357;-63
2022/05/03 08:55:53;;;;;;;;;41.00;34.25;;;;;16.09;46.95;100933.44;4963443;28;45548;-63
2022/05/03 08:58:19;;;;;;;;;42.50;35.00;;;;;16.19;47.34;100931.06;4942846;28;46886;-65
2022/05/03 09:00:45;;;;;;;;;35.00;33.00;;;;;16.30;46.75;100933.94;4960005;28;45356;-67
2022/05/03 09:03:12;;;;;;;;;36.75;31.25;;;;;16.39;46.24;100940.53;4958107;28;45456;-66
2022/05/03 09:05:39;;;;;;;;;37.25;33.00;;;;;16.47;46.75;100932.97;4961274;28;45328;-64
2022/05/03 09:08:08;;;;;;;;;39.00;35.25;;;;;16.56;46.44;100931.56;4959834;28;45325;-66
2022/05/03 09:10:36;;;;;;;;;44.50;35.50;;;;;16.65;46.31;100933.69;4959319;28;45352;-66
2022/05/03 09:13:20;;;;;;;;;40.25;32.25;;;;;16.67;46.16;100930.91;4961662;28;45307;-66
2022/05/03 09:15:50;;;;;;;;;41.50;35.25;;;;;16.62;46.26;100927.69;4942759;28;45462;-66
2022/05/03 09:18:22;;;;;;;;;42.50;34.25;;;;;16.60;46.18;100940.19;4957764;28;46347;-64
2022/05/03 09:23:50;;;;;;;;;38.00;32.75;;;;;16.68;46.59;100940.59;4957711;28;45400;-64
2022/05/03 09:26:26;;;;;;;;;34.75;32.25;;;;;16.78;46.08;100940.91;4957707;28;45295;-65
2022/05/03 09:28:54;;;;;;;;;38.75;32.75;;;;;16.83;45.84;100936.16;4957783;28;45658;-67
2022/05/03 09:31:41;;;;;;;;;37.50;31.50;;;;;16.97;45.22;100935.34;4958341;28;45316;-62
2022/05/03 09:34:24;;;;;;;;;38.50;32.50;;;;;17.01;44.63;100933.34;4958182;28;45262;-61
2022/05/03 09:37:04;;;;;;;;;38.75;32.00;;;;;17.04;44.80;100928.72;4958772;28;45273;-65
2022/05/03 09:39:32;;;;;;;;;27.00;25.75;;;;;17.21;43.79;100935.63;4956768;28;45554;-64
2022/05/03 09:42:09;;;;;;;;;34.75;32.50;;;;;17.34;43.57;100929.53;4957216;28;45427;-68
2022/05/03 09:44:36;;;;;;;;;41.75;33.00;;;;;17.37;43.20;100924.88;4957936;28;45245;-66
2022/05/03 09:47:11;;;;;;;;;34.00;30.00;;;;;17.48;43.61;100928.66;4958286;28;45516;-66
2022/05/03 09:49:39;;;;;;;;;33.50;29.50;;;;;17.60;43.13;100927.88;4957552;28;46020;-67
2022/05/03 09:52:06;;;;;;;;;34.00;29.50;;;;;17.73;43.10;100922.63;4957605;28;45518;-65
2022/05/03 09:54:51;;;;;;;;;31.50;29.25;;;;;17.85;43.53;100917.44;4957937;28;45356;-61
2022/05/03 09:57:21;;;;;;;;;25.75;24.50;;;;;17.96;42.17;100920.25;4957635;28;45523;-63
2022/05/03 09:59:48;;;;;;;;;33.50;28.25;;;;;18.05;41.97;100921.50;4957092;28;46389;-66
2022/05/03 10:02:16;;;;;;;;;36.00;30.75;;;;;18.09;41.91;100923.84;4956843;28;45388;-64
2022/05/03 10:04:43;;;;;;;;;33.50;32.00;;;;;18.07;41.39;100922.25;4957312;28;45315;-64
2022/05/03 10:07:09;;;;;;;;;28.00;28.00;;;;;18.14;40.55;100926.22;4957238;28;45572;-64
2022/05/03 10:09:35;;;;;;;;;29.75;27.25;;;;;18.17;40.79;100926.00;4955658;28;47854;-65
2022/05/03 10:12:02;;;;;;;;;34.50;30.00;;;;;18.30;40.92;100923.34;4955405;28;45263;-63
2022/05/03 10:14:27;;;;;;;;;42.50;35.25;;;;;18.43;41.07;100920.72;4957849;28;45242;-66
2022/05/03 10:22:24;;;;;;;;;33.50;31.25;;;;;18.70;40.11;100919.78;4957372;28;45247;-65
2022/05/03 10:24:55;;;;;;;;;29.00;27.50;;;;;18.72;40.01;100914.34;4957468;28;45356;-65
2022/05/03 10:27:24;;;;;;;;;36.00;30.75;;;;;18.83;40.12;100927.78;4957166;28;45362;-66
2022/05/03 10:30:20;;;;;;;;;34.25;29.50;;;;;18.93;39.77;100909.31;4955009;28;46288;-63
2022/05/03 10:33:05;;;;;;;;;28.00;27.25;;;;;18.83;39.96;100920.63;4956715;28;45338;-63
2022/05/03 10:35:36;;;;;;;;;28.25;28.25;;;;;18.83;40.34;100917.13;4956264;28;45307;-63
2022/05/03 10:38:04;;;;;;;;;28.25;28.25;;;;;18.82;39.98;100907.41;4956880;28;45456;-63
2022/05/03 10:40:34;;;;;;;;;33.00;30.50;;;;;18.96;40.29;100914.44;4956826;28;46173;-66
2022/05/03 10:43:10;;;;;;;;;28.75;28.75;;;;;19.12;40.18;100917.78;4956873;28;45321;-66
2022/05/03 10:45:56;;;;;;;;;41.75;35.00;;;;;19.29;39.54;100915.72;4956238;28;45286;-63
2022/05/03 10:48:23;;;;;;;;;28.00;26.25;;;;;19.38;38.20;100906.19;4956424;28;45347;-63
2022/05/03 10:50:50;;;;;;;;;31.00;27.75;;;;;19.37;38.72;100902.66;4957569;28;47045;-64
2022/05/03 10:53:18;;;;;;;;;28.25;24.25;;;;;19.41;38.08;100909.50;4955586;28;45398;-63
2022/05/03 10:56:03;;;;;;;;;31.50;30.25;;;;;19.47;37.61;100904.66;4954948;28;45473;-62
2022/05/03 10:58:34;;;;;;;;;30.50;26.50;;;;;19.55;38.03;100899.63;4956543;28;45354;-65
2022/05/03 11:01:20;;;;;;;;;22.25;21.00;;;;;19.60;38.77;100896.59;4955979;28;46168;-64
2022/05/03 11:03:48;;;;;;;;;24.25;24.00;;;;;19.79;38.51;100891.63;4956532;28;45337;-66
2022/05/03 11:06:23;;;;;;;;;26.00;25.00;;;;;19.88;36.62;100890.06;4957523;28;45224;-64
2022/05/03 11:11:44;;;;;;;;;32.25;30.25;;;;;19.90;37.02;100895.34;4956263;28;45313;-64
2022/05/03 11:14:33;;;;;;;;;27.75;25.50;;;;;19.87;36.89;100893.72;4957050;28;45423;-65
2022/05/03 11:17:20;;;;;;;;;25.50;23.75;;;;;19.88;37.36;100891.91;4955071;28;45288;-65
2022/05/03 11:19:50;;;;;;;;;23.25;22.25;;;;;19.93;37.63;100884.44;4954826;28;45258;-64
2022/05/03 11:22:18;;;;;;;;;28.00;23.75;;;;;19.93;36.74;100895.94;4956050;28;46119;-62
2022/05/03 11:24:45;;;;;;;;;25.75;23.50;;;;;19.98;36.88;100896.47;4956482;28;45515;-65
2022/05/03 11:27:13;;;;;;;;;23.25;22.25;;;;;20.07;36.71;100894.06;4957406;28;45356;-62
2022/05/03 11:29:42;;;;;;;;;19.50;18.25;;;;;20.11;37.23;100891.06;4939856;28;45485;-66
2022/05/03 11:32:09;;;;;;;;;23.25;20.00;;;;;20.15;36.80;100881.00;4939772;28;47403;-65
2022/05/03 11:34:35;;;;;;;;;24.25;23.25;;;;;20.10;36.71;100880.47;4956971;28;45325;-66
2022/05/03 11:37:03;;;;;;;;;25.50;24.50;;;;;20.18;36.52;100872.75;4938724;28;45423;-65
2022/05/03 11:39:29;;;;;;;;;26.25;24.00;;;;;20.21;36.76;100869.84;4938894;28;45239;-67
2022/05/03 11:41:54;;;;;;;;;24.25;23.50;;;;;20.31;37.04;100875.31;4955481;28;46219;-66
2022/05/03 11:44:20;;;;;;;;;23.75;21.00;;;;;20.49;36.59;100880.22;4955570;28;45226;-65
2022/05/03 11:46:48;;;;;;;;;21.50;20.50;;;;;20.62;36.17;100874.78;4956063;28;45156;-65
2022/05/03 11:49:15;;;;;;;;;24.75;23.25;;;;;20.69;35.93;100874.19;4939057;28;45646;-67
2022/05/03 11:57:21;;;;;;;;;19.75;18.25;;;;;20.65;35.78;100869.19;4956176;28;45542;-66
2022/05/03 11:59:49;;;;;;;;;27.25;23.00;;;;;20.86;35.52;100858.66;4956373;28;45654;-66